createdAt,value
2018-04-08T19:36:00.144Z,1001.24
2018-04-08T19:37:01.807Z,1001.24
2018-04-08T19:38:57.204Z,1001.24
2018-04-08T19:39:57.801Z,1001.21
2018-04-08T19:40:52.716Z,1001.20
2018-04-08T19:41:53.044Z,1001.24
2018-04-08T19:42:51.560Z,1001.22
2018-04-08T19:43:51.941Z,1001.21
2018-04-08T19:44:53.482Z,1001.23
2018-04-08T19:45:51.466Z,1001.26
2018-04-08T19:46:51.206Z,1001.21
2018-04-08T19:47:51.434Z,1001.26
2018-04-08T19:48:51.180Z,1001.26
2018-04-08T19:49:51.010Z,1001.28
2018-04-08T19:50:51.189Z,1001.30
2018-04-08T19:51:51.075Z,1001.28
2018-04-08T19:52:51.055Z,1001.25
2018-04-08T19:53:51.020Z,1001.22
2018-04-08T19:54:50.892Z,1001.24
2018-04-08T19:55:50.873Z,1001.25
2018-04-08T19:56:51.024Z,1001.25
2018-04-08T19:57:50.885Z,1001.25
2018-04-08T19:58:50.785Z,1001.30
2018-04-08T19:59:50.757Z,1001.24
2018-04-08T20:00:50.922Z,1001.26
2018-04-08T20:01:50.656Z,1001.22
2018-04-08T20:02:50.693Z,1001.25
2018-04-08T20:03:50.694Z,1001.25
2018-04-08T20:04:51.491Z,1001.25
2018-04-08T20:05:50.674Z,1001.24
2018-04-08T20:06:50.714Z,1001.20
2018-04-08T20:07:50.601Z,1001.20
2018-04-08T20:08:50.578Z,1001.21
2018-04-08T20:09:50.671Z,1001.18
2018-04-08T20:10:50.538Z,1001.21
2018-04-08T20:11:50.539Z,1001.18
2018-04-08T20:12:51.025Z,1001.22
2018-04-08T20:15:40.221Z,1001.21
2018-04-08T20:16:36.556Z,1001.18
2018-04-08T20:18:43.820Z,1001.17
2018-04-08T20:19:41.189Z,1001.14
2018-04-08T20:23:22.873Z,1001.14
2018-04-08T20:24:21.401Z,1001.13
2018-04-08T20:26:27.059Z,1001.11
2018-04-08T20:27:23.527Z,1001.10
2018-04-08T20:28:23.726Z,1001.11
2018-04-08T20:29:24.200Z,1001.11
2018-04-08T20:30:23.951Z,1001.08
2018-04-08T20:31:24.966Z,1001.11
2018-04-08T20:32:23.132Z,1001.08
2018-04-08T20:33:22.953Z,1001.08
2018-04-08T20:34:22.997Z,1001.07
2018-04-08T20:35:22.962Z,1001.10
2018-04-08T20:36:22.894Z,1001.10
2018-04-08T20:37:23.101Z,1001.11
2018-04-08T20:39:59.793Z,1001.12
2018-04-08T20:40:57.945Z,1001.06
2018-04-08T20:42:59.851Z,1001.04
2018-04-08T20:44:00.216Z,1001.04
2018-04-08T20:46:13.147Z,1000.99
2018-04-08T20:47:10.677Z,1001.04
2018-04-08T20:49:17.290Z,1001.07
2018-04-08T20:50:16.884Z,1001.05
2018-04-08T20:52:30.213Z,1001.08
2018-04-08T20:53:30.612Z,1001.08
2018-04-08T20:55:36.812Z,1001.06
2018-04-08T20:56:37.926Z,1001.05
2018-04-08T20:58:39.132Z,1001.08
2018-04-08T20:59:38.453Z,1001.05
2018-04-08T21:01:41.175Z,1001.07
2018-04-08T21:02:39.576Z,1001.03
2018-04-08T21:04:44.731Z,1001.06
2018-04-08T21:05:43.485Z,1001.05
2018-04-08T21:07:48.168Z,1001.01
2018-04-08T21:08:47.074Z,1001.05
2018-04-08T21:10:50.975Z,1001.03
2018-04-08T21:11:50.908Z,1001.08
2018-04-08T21:13:55.397Z,1001.07
2018-04-08T21:14:54.809Z,1001.06
2018-04-08T21:16:59.085Z,1001.08
2018-04-08T21:17:56.915Z,1001.11
2018-04-08T21:20:13.396Z,1001.09
2018-04-08T21:23:18.595Z,1001.09
2018-04-08T21:24:19.962Z,1001.07
2018-04-08T21:26:24.977Z,1001.04
2018-04-08T21:29:28.992Z,1001.04
2018-04-08T21:30:28.787Z,1001.02
2018-04-08T21:32:34.699Z,1001.01
2018-04-08T21:33:34.145Z,1001.02
2018-04-08T21:35:51.506Z,1000.99
2018-04-08T21:39:04.280Z,1000.99
2018-04-08T21:40:02.813Z,1000.99
2018-04-08T21:42:15.812Z,1001.01
2018-04-08T21:43:17.692Z,1000.99
2018-04-08T21:45:21.205Z,1001.03
2018-04-08T21:46:22.361Z,1001.00
2018-04-08T21:48:28.295Z,1000.97
2018-04-08T21:49:28.426Z,1001.01
2018-04-08T21:51:33.405Z,1000.97
2018-04-08T21:52:32.871Z,1000.98
2018-04-08T21:54:39.836Z,1000.99
2018-04-08T21:57:22.296Z,1000.99
2018-04-08T21:58:22.187Z,1000.95
2018-04-08T22:00:27.587Z,1000.98
2018-04-08T22:01:26.708Z,1000.93
2018-04-08T22:03:30.555Z,1000.96
2018-04-08T22:04:30.399Z,1000.95
2018-04-08T22:06:37.530Z,1000.94
2018-04-08T22:07:35.621Z,1000.98
2018-04-08T22:08:36.149Z,1000.97
2018-04-08T22:09:35.598Z,1000.97
2018-04-08T22:10:36.202Z,1000.99
2018-04-08T22:11:35.217Z,1001.01
2018-04-08T22:12:35.077Z,1000.99
2018-04-08T22:13:35.071Z,1001.02
2018-04-08T22:14:35.106Z,1001.02
2018-04-08T22:15:35.044Z,1001.04
2018-04-08T22:16:35.055Z,1001.02
2018-04-08T22:17:34.955Z,1001.04
2018-04-08T22:18:35.012Z,1001.02
2018-04-08T22:19:34.905Z,1001.04
2018-04-08T22:20:34.904Z,1001.05
2018-04-08T22:21:34.855Z,1001.04
2018-04-08T22:22:34.840Z,1001.05
2018-04-08T22:23:34.847Z,1001.08
2018-04-08T22:24:34.794Z,1001.08
2018-04-08T22:25:34.759Z,1001.09
2018-04-08T22:26:34.746Z,1001.08
2018-04-08T22:27:34.712Z,1001.08
2018-04-08T22:28:34.732Z,1001.08
2018-04-08T22:29:34.663Z,1001.10
2018-04-08T22:30:34.681Z,1001.09
2018-04-08T22:31:34.611Z,1001.08
2018-04-08T22:32:34.582Z,1001.07
2018-04-08T22:33:34.590Z,1001.10
2018-04-08T22:34:34.533Z,1001.09
2018-04-08T22:35:34.551Z,1001.13
2018-04-08T22:36:34.509Z,1001.11
2018-04-08T22:37:34.539Z,1001.10
2018-04-08T22:38:34.442Z,1001.15
2018-04-08T22:39:34.446Z,1001.14
2018-04-08T22:40:34.441Z,1001.16
2018-04-08T22:41:34.368Z,1001.14
2018-04-08T22:42:34.336Z,1001.19
2018-04-08T22:43:34.313Z,1001.17
2018-04-08T22:44:34.289Z,1001.16
2018-04-08T22:45:34.260Z,1001.19
2018-04-08T22:46:34.239Z,1001.17
2018-04-08T22:47:34.268Z,1001.20
2018-04-08T22:48:34.183Z,1001.19
2018-04-08T22:49:34.159Z,1001.15
2018-04-08T22:50:34.167Z,1001.17
2018-04-08T22:51:34.120Z,1001.15
2018-04-08T22:52:34.119Z,1001.15
2018-04-08T22:53:34.067Z,1001.13
2018-04-08T22:54:34.084Z,1001.14
2018-04-08T22:55:34.056Z,1001.16
2018-04-08T22:56:33.980Z,1001.18
2018-04-08T22:57:33.954Z,1001.15
2018-04-08T22:58:33.988Z,1001.19
2018-04-08T22:59:33.905Z,1001.18
2018-04-08T23:00:33.882Z,1001.18
2018-04-08T23:01:33.854Z,1001.22
2018-04-08T23:02:33.832Z,1001.19
2018-04-08T23:03:33.810Z,1001.26
2018-04-08T23:04:33.785Z,1001.20
2018-04-08T23:05:33.765Z,1001.16
2018-04-08T23:06:33.795Z,1001.16
2018-04-08T23:07:33.708Z,1001.16
2018-04-08T23:08:33.738Z,1001.16
2018-04-08T23:09:33.665Z,1001.17
2018-04-08T23:10:33.629Z,1001.12
2018-04-08T23:11:33.685Z,1001.18
2018-04-08T23:12:33.581Z,1001.19
2018-04-08T23:13:33.554Z,1001.14
2018-04-08T23:14:33.651Z,1001.12
2018-04-08T23:15:33.512Z,1001.10
2018-04-08T23:16:33.476Z,1001.13
2018-04-08T23:17:33.513Z,1001.07
2018-04-08T23:18:33.517Z,1001.08
2018-04-08T23:19:33.400Z,1001.12
2018-04-08T23:20:33.735Z,1001.08
2018-04-08T23:21:33.351Z,1001.08
2018-04-08T23:22:33.345Z,1001.04
2018-04-08T23:23:33.553Z,1001.05
2018-04-08T23:24:33.277Z,1001.05
2018-04-08T23:25:33.254Z,1001.01
2018-04-08T23:26:33.236Z,1001.00
2018-04-08T23:27:33.286Z,1000.97
2018-04-08T23:28:33.195Z,1000.97
2018-04-08T23:29:33.161Z,1000.96
2018-04-08T23:30:33.147Z,1000.96
2018-04-08T23:31:33.097Z,1000.95
2018-04-08T23:32:33.076Z,1000.96
2018-04-08T23:33:33.040Z,1000.95
2018-04-08T23:34:33.020Z,1000.92
2018-04-08T23:35:32.999Z,1000.92
2018-04-08T23:36:32.985Z,1000.90
2018-04-08T23:37:32.949Z,1000.87
2018-04-08T23:38:32.918Z,1000.93
2018-04-08T23:39:32.896Z,1000.93
2018-04-08T23:40:32.870Z,1000.90
2018-04-08T23:41:32.867Z,1000.95
2018-04-08T23:42:32.816Z,1000.91
2018-04-08T23:43:32.788Z,1000.91
2018-04-08T23:44:32.765Z,1000.88
2018-04-08T23:45:32.735Z,1000.92
2018-04-08T23:46:32.708Z,1000.87
2018-04-08T23:47:32.684Z,1000.91
2018-04-08T23:48:32.657Z,1000.88
2018-04-08T23:49:32.638Z,1000.93
2018-04-08T23:50:32.611Z,1000.88
2018-04-08T23:51:32.585Z,1000.88
2018-04-08T23:52:32.571Z,1000.86
2018-04-08T23:53:32.532Z,1000.91
2018-04-08T23:54:32.590Z,1000.91
2018-04-08T23:55:32.488Z,1000.90
2018-04-08T23:56:32.450Z,1000.90
2018-04-08T23:57:32.431Z,1000.88
2018-04-08T23:58:32.410Z,1000.91
2018-04-08T23:59:32.382Z,1000.90
